Time;durP1;ratioP1;P1;durP2;ratioP2;P2;SDS_P1;SDS_P2;PMS_P1;PMS_P2;Temp;Humidity;BMP_temperature;BMP_pressure;BME280_temperature;BME280_humidity;BME280_pressure;Samples;Min_cycle;Max_cycle;Signal;HPM_P1;HPM_P2
2023/12/03 00:02:24;;;;;;;;;93.25;68.25;;;;;;;;4959903;28;45442;-74
2023/12/03 00:04:53;;;;;;;;;89.50;66.25;;;;;;;;4960609;28;45447;-74
2023/12/03 00:07:19;;;;;;;;;90.25;70.00;;;;;;;;4943398;28;45294;-74
2023/12/03 00:09:46;;;;;;;;;78.00;60.00;;;;;;;;4943502;28;48792;-74
2023/12/03 00:12:11;;;;;;;;;86.33;61.67;;;;;;;;4960922;28;45266;-75
2023/12/03 00:14:36;;;;;;;;;87.33;64.33;;;;;;;;4957557;28;45595;-75
2023/12/03 00:17:01;;;;;;;;;90.00;66.33;;;;;;;;4961587;28;45416;-75
2023/12/03 00:19:27;;;;;;;;;93.33;70.00;;;;;;;;4958444;28;45370;-75
2023/12/03 00:21:52;;;;;;;;;90.00;63.00;;;;;;;;4961567;28;45453;-75
2023/12/03 00:24:17;;;;;;;;;68.67;54.00;;;;;;;;4957639;28;45220;-75
2023/12/03 00:26:43;;;;;;;;;66.00;49.00;;;;;;;;4943373;28;47102;-75
2023/12/03 00:29:08;;;;;;;;;73.00;55.00;;;;;;;;4958484;28;45356;-75
2023/12/03 00:31:34;;;;;;;;;71.67;53.67;;;;;;;;4961247;28;45149;-75
2023/12/03 00:33:59;;;;;;;;;73.67;59.00;;;;;;;;4955494;28;45445;-75
2023/12/03 00:36:24;;;;;;;;;68.33;53.67;;;;;;;;4942404;28;46467;-75
2023/12/03 00:38:49;;;;;;;;;75.67;58.00;;;;;;;;4956609;28;45438;-75
2023/12/03 00:41:15;;;;;;;;;77.33;60.00;;;;;;;;4960585;28;45251;-75
2023/12/03 00:43:40;;;;;;;;;78.33;56.67;;;;;;;;4957891;28;45302;-75
2023/12/03 00:46:05;;;;;;;;;76.00;56.00;;;;;;;;4968032;28;45456;-75
2023/12/03 00:48:30;;;;;;;;;74.33;58.00;;;;;;;;4958782;28;45371;-74
2023/12/03 00:50:56;;;;;;;;;61.33;50.00;;;;;;;;4960847;28;45352;-75
2023/12/03 00:53:21;;;;;;;;;66.33;51.00;;;;;;;;4938459;28;45398;-74
2023/12/03 00:55:46;;;;;;;;;63.00;44.67;;;;;;;;4960687;28;45557;-75
2023/12/03 00:58:11;;;;;;;;;73.33;53.67;;;;;;;;4956568;28;45545;-74
2023/12/03 01:00:36;;;;;;;;;65.67;47.67;;;;;;;;4960492;28;45349;-74
2023/12/03 01:03:02;;;;;;;;;66.33;46.00;;;;;;;;4940515;28;45340;-74
2023/12/03 01:05:27;;;;;;;;;61.00;46.00;;;;;;;;4959276;28;45423;-75
2023/12/03 01:07:52;;;;;;;;;63.67;48.67;;;;;;;;4945212;28;47697;-75
2023/12/03 01:10:17;;;;;;;;;44.00;35.00;;;;;;;;4960281;28;45298;-74
2023/12/03 01:12:43;;;;;;;;;53.67;45.33;;;;;;;;4958151;28;45310;-74
2023/12/03 01:15:08;;;;;;;;;51.00;39.67;;;;;;;;4957417;28;45463;-74
2023/12/03 01:17:33;;;;;;;;;53.67;43.67;;;;;;;;4958464;28;45369;-74
2023/12/03 01:19:58;;;;;;;;;40.00;30.33;;;;;;;;4957944;28;45290;-74
2023/12/03 01:22:24;;;;;;;;;55.00;42.33;;;;;;;;4941533;28;45559;-74
2023/12/03 01:24:49;;;;;;;;;52.67;29.67;;;;;;;;4957971;28;45352;-74
2023/12/03 01:27:14;;;;;;;;;46.67;35.00;;;;;;;;4959478;28;45298;-74
2023/12/03 01:29:39;;;;;;;;;52.00;35.33;;;;;;;;4958721;28;45242;-74
2023/12/03 01:32:05;;;;;;;;;50.33;35.67;;;;;;;;4960708;28;45424;-74
2023/12/03 01:34:31;;;;;;;;;36.33;32.67;;;;;;;;4958075;28;45640;-74
2023/12/03 01:36:56;;;;;;;;;41.00;40.33;;;;;;;;4960483;28;46465;-74
2023/12/03 01:39:21;;;;;;;;;40.33;33.00;;;;;;;;4952579;28;45330;-74
2023/12/03 01:41:46;;;;;;;;;50.33;32.67;;;;;;;;4960335;28;45288;-74
2023/12/03 01:44:11;;;;;;;;;41.67;33.00;;;;;;;;4956451;28;45338;-74
2023/12/03 01:46:37;;;;;;;;;38.33;36.00;;;;;;;;4942454;28;45330;-74
2023/12/03 01:49:02;;;;;;;;;36.33;31.67;;;;;;;;4941601;28;45325;-74
2023/12/03 01:51:27;;;;;;;;;50.00;39.33;;;;;;;;4960065;28;45339;-74
2023/12/03 01:53:53;;;;;;;;;41.33;35.67;;;;;;;;4954726;28;45491;-74
2023/12/03 01:56:19;;;;;;;;;33.33;30.00;;;;;;;;4939323;28;48436;-74
2023/12/03 01:58:44;;;;;;;;;49.33;33.33;;;;;;;;4953348;28;45494;-74
2023/12/03 02:01:09;;;;;;;;;42.33;37.00;;;;;;;;4960117;28;45290;-75
2023/12/03 02:03:34;;;;;;;;;41.00;31.33;;;;;;;;4941102;28;46137;-74
2023/12/03 02:06:06;;;;;;;;;41.67;32.33;;;;;;;;4961347;28;46407;-74
2023/12/03 02:08:32;;;;;;;;;45.00;35.00;;;;;;;;4956354;28;45322;-74
2023/12/03 02:10:58;;;;;;;;;37.67;36.00;;;;;;;;4959993;28;45212;-74
2023/12/03 02:13:23;;;;;;;;;44.33;28.67;;;;;;;;4957451;28;45251;-74
2023/12/03 02:15:49;;;;;;;;;37.00;31.67;;;;;;;;4959720;28;45481;-74
2023/12/03 02:18:14;;;;;;;;;37.33;31.67;;;;;;;;4956310;28;45442;-74
2023/12/03 02:20:39;;;;;;;;;40.67;32.33;;;;;;;;4959918;28;45206;-74
2023/12/03 02:23:04;;;;;;;;;42.67;35.00;;;;;;;;4957502;28;45230;-74
2023/12/03 02:25:29;;;;;;;;;46.33;33.00;;;;;;;;4959406;28;45265;-74
2023/12/03 02:27:55;;;;;;;;;35.33;30.33;;;;;;;;4959601;28;45493;-74
2023/12/03 02:30:20;;;;;;;;;37.33;30.00;;;;;;;;4959315;28;45464;-75
2023/12/03 02:32:45;;;;;;;;;43.67;34.33;;;;;;;;4960992;28;46493;-75
2023/12/03 02:35:10;;;;;;;;;39.00;29.67;;;;;;;;4945389;28;46223;-75
2023/12/03 02:37:36;;;;;;;;;54.00;35.33;;;;;;;;4960474;28;45293;-74
2023/12/03 02:40:01;;;;;;;;;46.67;34.67;;;;;;;;4960628;28;44827;-74
2023/12/03 02:42:26;;;;;;;;;31.00;30.00;;;;;;;;4961204;28;45227;-74
2023/12/03 02:44:51;;;;;;;;;47.33;33.00;;;;;;;;4957130;28;46315;-74
2023/12/03 02:47:16;;;;;;;;;44.33;39.00;;;;;;;;4962042;28;45238;-74
2023/12/03 02:49:41;;;;;;;;;42.00;34.00;;;;;;;;4957771;28;45373;-74
2023/12/03 02:52:07;;;;;;;;;40.00;33.00;;;;;;;;4945305;28;45364;-74
2023/12/03 02:54:32;;;;;;;;;37.00;30.33;;;;;;;;4956480;28;45547;-74
2023/12/03 02:56:57;;;;;;;;;43.00;36.33;;;;;;;;4962359;28;45378;-75
2023/12/03 02:59:22;;;;;;;;;38.67;27.00;;;;;;;;4956170;28;45259;-74
2023/12/03 03:01:47;;;;;;;;;43.00;31.00;;;;;;;;4962278;28;45583;-75
2023/12/03 03:04:12;;;;;;;;;39.67;29.33;;;;;;;;4939200;28;47317;-74
2023/12/03 03:06:38;;;;;;;;;35.33;29.33;;;;;;;;4969199;28;44819;-74
2023/12/03 03:09:03;;;;;;;;;34.67;29.67;;;;;;;;4958082;28;45456;-74
2023/12/03 03:11:28;;;;;;;;;29.67;26.33;;;;;;;;4962156;28;45270;-74
2023/12/03 03:13:53;;;;;;;;;33.67;33.00;;;;;;;;4958713;28;46575;-74
2023/12/03 03:16:19;;;;;;;;;32.67;21.33;;;;;;;;4962252;28;45322;-74
2023/12/03 03:18:44;;;;;;;;;33.33;27.00;;;;;;;;4942608;28;45454;-74
2023/12/03 03:21:09;;;;;;;;;30.00;25.00;;;;;;;;4962338;28;45333;-74
2023/12/03 03:23:35;;;;;;;;;32.00;25.33;;;;;;;;4960141;28;46637;-74
2023/12/03 03:26:00;;;;;;;;;23.33;22.33;;;;;;;;4944649;28;45350;-74
2023/12/03 03:28:25;;;;;;;;;34.33;23.00;;;;;;;;4960608;28;45434;-74
2023/12/03 03:30:52;;;;;;;;;35.67;26.33;;;;;;;;4962124;28;45465;-75
2023/12/03 03:33:17;;;;;;;;;30.00;24.33;;;;;;;;4959660;28;45625;-75
2023/12/03 03:35:42;;;;;;;;;36.67;29.33;;;;;;;;4961816;28;45354;-74
2023/12/03 03:38:08;;;;;;;;;25.50;16.00;;;;;;;;4957889;28;45417;-74
2023/12/03 03:40:33;;;;;;;;;30.00;21.67;;;;;;;;4943755;28;46696;-75
2023/12/03 03:42:58;;;;;;;;;40.67;26.67;;;;;;;;4959977;28;45695;-74
2023/12/03 03:45:23;;;;;;;;;22.75;15.25;;;;;;;;4958424;28;45200;-75
2023/12/03 03:47:48;;;;;;;;;34.67;30.00;;;;;;;;4959447;28;45267;-74
2023/12/03 03:50:13;;;;;;;;;32.25;27.00;;;;;;;;4944701;28;45513;-74
2023/12/03 03:52:39;;;;;;;;;38.25;30.00;;;;;;;;4960241;28;45222;-74
2023/12/03 03:55:05;;;;;;;;;43.00;27.50;;;;;;;;4945596;28;45233;-74
2023/12/03 03:57:30;;;;;;;;;29.00;25.67;;;;;;;;4943858;28;45222;-74
2023/12/03 03:59:55;;;;;;;;;39.00;34.33;;;;;;;;4959822;28;45600;-75
2023/12/03 04:02:20;;;;;;;;;35.50;33.50;;;;;;;;4960555;28;46328;-74
2023/12/03 04:04:45;;;;;;;;;34.67;29.00;;;;;;;;4958850;28;45286;-75
2023/12/03 04:07:11;;;;;;;;;34.00;26.00;;;;;;;;4965066;28;45348;-74
2023/12/03 04:09:36;;;;;;;;;31.33;28.00;;;;;;;;4945384;28;46088;-74
2023/12/03 04:12:03;;;;;;;;;35.00;31.00;;;;;;;;4961202;28;45562;-74
2023/12/03 04:14:28;;;;;;;;;32.33;26.67;;;;;;;;4955485;28;45480;-75
2023/12/03 04:16:56;;;;;;;;;35.67;25.67;;;;;;;;4961777;28;45292;-74
2023/12/03 04:19:21;;;;;;;;;32.50;23.75;;;;;;;;4955639;28;46208;-74
2023/12/03 04:21:47;;;;;;;;;41.00;30.25;;;;;;;;4961574;28;45493;-75
2023/12/03 04:24:12;;;;;;;;;33.50;27.75;;;;;;;;4955349;28;45429;-74
2023/12/03 04:26:40;;;;;;;;;35.25;26.25;;;;;;;;4961083;28;45294;-75
2023/12/03 04:29:06;;;;;;;;;30.50;28.75;;;;;;;;4954708;28;45464;-75
2023/12/03 04:31:31;;;;;;;;;42.67;29.00;;;;;;;;4960385;28;45382;-75
2023/12/03 04:33:56;;;;;;;;;31.00;28.00;;;;;;;;4961090;28;45463;-75
2023/12/03 04:36:24;;;;;;;;;32.75;29.75;;;;;;;;4961137;28;45840;-75
2023/12/03 04:38:50;;;;;;;;;34.00;33.33;;;;;;;;4954951;28;45301;-74
2023/12/03 04:41:16;;;;;;;;;39.00;35.67;;;;;;;;4960564;28;45488;-75
2023/12/03 04:43:41;;;;;;;;;47.67;33.00;;;;;;;;4938626;28;45638;-75
2023/12/03 04:46:06;;;;;;;;;30.00;22.75;;;;;;;;4961048;28;45381;-75
2023/12/03 04:48:32;;;;;;;;;34.50;22.50;;;;;;;;4958172;28;45670;-75
2023/12/03 04:50:57;;;;;;;;;26.75;20.75;;;;;;;;4960266;28;45433;-75
2023/12/03 04:53:23;;;;;;;;;33.50;23.75;;;;;;;;4937627;28;45775;-75
2023/12/03 04:55:48;;;;;;;;;33.75;29.50;;;;;;;;4960594;28;45451;-75
2023/12/03 04:58:13;;;;;;;;;30.75;29.75;;;;;;;;4954707;28;45156;-75
2023/12/03 05:00:38;;;;;;;;;35.50;27.25;;;;;;;;4960077;28;45591;-75
2023/12/03 05:03:04;;;;;;;;;35.67;33.67;;;;;;;;4939495;28;45247;-75
2023/12/03 05:05:29;;;;;;;;;34.75;29.25;;;;;;;;4963299;28;45234;-75
2023/12/03 05:07:54;;;;;;;;;43.25;32.50;;;;;;;;4963018;28;45475;-75
2023/12/03 05:10:19;;;;;;;;;37.25;25.25;;;;;;;;4959943;28;45463;-75
2023/12/03 05:12:45;;;;;;;;;33.50;31.25;;;;;;;;4940780;28;45698;-75
2023/12/03 05:15:10;;;;;;;;;36.25;31.75;;;;;;;;4959366;28;45208;-75
2023/12/03 05:17:35;;;;;;;;;35.75;27.25;;;;;;;;4940137;28;46066;-75
2023/12/03 05:20:01;;;;;;;;;44.00;35.67;;;;;;;;4960051;28;45563;-75
2023/12/03 05:22:26;;;;;;;;;43.33;32.33;;;;;;;;4941223;28;45315;-75
2023/12/03 05:24:51;;;;;;;;;44.67;37.33;;;;;;;;4959909;28;45381;-75
2023/12/03 05:27:16;;;;;;;;;48.25;34.25;;;;;;;;4959452;28;45318;-75
2023/12/03 05:29:43;;;;;;;;;45.00;38.00;;;;;;;;4942550;28;45623;-74
2023/12/03 05:32:08;;;;;;;;;36.25;30.00;;;;;;;;4960402;28;44629;-75
2023/12/03 05:34:33;;;;;;;;;40.75;30.00;;;;;;;;4958609;28;45501;-75
2023/12/03 05:36:58;;;;;;;;;34.50;22.50;;;;;;;;4960432;28;45259;-74
2023/12/03 05:39:23;;;;;;;;;26.25;22.25;;;;;;;;4952932;28;45424;-75
2023/12/03 05:41:49;;;;;;;;;36.00;31.50;;;;;;;;4960220;28;45278;-74
2023/12/03 05:44:14;;;;;;;;;44.67;32.00;;;;;;;;4955170;28;45256;-75
2023/12/03 05:46:39;;;;;;;;;54.33;37.33;;;;;;;;4942079;28;46502;-75
2023/12/03 05:49:06;;;;;;;;;40.00;36.33;;;;;;;;4954522;28;45437;-75
2023/12/03 05:51:31;;;;;;;;;42.67;31.33;;;;;;;;4960000;28;45274;-75
2023/12/03 05:53:57;;;;;;;;;43.00;39.00;;;;;;;;4954206;28;45492;-75
2023/12/03 05:56:22;;;;;;;;;55.33;36.33;;;;;;;;4960787;28;44764;-75
2023/12/03 05:58:47;;;;;;;;;36.75;29.50;;;;;;;;4954057;28;45409;-74
2023/12/03 06:01:20;;;;;;;;;44.00;39.00;;;;;;;;4962205;28;45257;-74
2023/12/03 06:03:45;;;;;;;;;46.00;36.33;;;;;;;;4960813;28;45440;-74
2023/12/03 06:06:10;;;;;;;;;44.00;38.00;;;;;;;;4970739;28;45435;-74
2023/12/03 06:08:36;;;;;;;;;43.67;40.33;;;;;;;;4963390;28;45396;-74
2023/12/03 06:11:01;;;;;;;;;42.00;37.33;;;;;;;;4965883;28;45224;-74
2023/12/03 06:13:26;;;;;;;;;51.00;39.00;;;;;;;;4962078;28;45313;-73
2023/12/03 06:15:51;;;;;;;;;58.00;39.00;;;;;;;;4966205;28;45254;-74
2023/12/03 06:18:16;;;;;;;;;46.00;40.67;;;;;;;;4963304;28;45588;-73
2023/12/03 06:20:41;;;;;;;;;41.33;35.00;;;;;;;;4948498;28;45685;-73
2023/12/03 06:23:07;;;;;;;;;50.33;40.33;;;;;;;;4963934;28;45200;-73
2023/12/03 06:25:32;;;;;;;;;45.67;43.00;;;;;;;;4964888;28;45255;-74
2023/12/03 06:27:57;;;;;;;;;52.67;38.67;;;;;;;;4963264;28;45613;-74
2023/12/03 06:30:22;;;;;;;;;54.67;37.67;;;;;;;;4964038;28;45279;-74
2023/12/03 06:32:47;;;;;;;;;51.67;40.33;;;;;;;;4963469;28;45175;-73
2023/12/03 06:35:14;;;;;;;;;46.33;42.00;;;;;;;;4960600;28;45247;-73
2023/12/03 06:37:40;;;;;;;;;42.67;36.00;;;;;;;;4945460;28;47437;-73
2023/12/03 06:40:05;;;;;;;;;49.00;40.33;;;;;;;;4959927;28;45459;-74
2023/12/03 06:42:30;;;;;;;;;42.67;35.00;;;;;;;;4961831;28;45663;-73
2023/12/03 06:44:55;;;;;;;;;54.67;40.00;;;;;;;;4947394;28;45316;-73
2023/12/03 06:47:20;;;;;;;;;55.67;41.67;;;;;;;;4964621;28;45589;-73
2023/12/03 06:49:47;;;;;;;;;46.50;35.00;;;;;;;;4960139;28;45206;-74
2023/12/03 06:52:12;;;;;;;;;44.67;39.33;;;;;;;;4965562;28;45321;-73
2023/12/03 06:54:37;;;;;;;;;38.00;32.67;;;;;;;;4960255;28;45242;-74
2023/12/03 06:57:03;;;;;;;;;44.00;38.33;;;;;;;;4964942;28;45452;-74
2023/12/03 06:59:28;;;;;;;;;41.50;33.75;;;;;;;;4960956;28;45362;-75
2023/12/03 07:01:53;;;;;;;;;44.75;35.50;;;;;;;;4965300;28;46281;-75
2023/12/03 07:04:18;;;;;;;;;35.75;31.25;;;;;;;;4962447;28;45251;-74
2023/12/03 07:06:43;;;;;;;;;46.50;36.75;;;;;;;;4968004;28;46544;-73
2023/12/03 07:09:11;;;;;;;;;44.67;40.33;;;;;;;;4942671;28;45321;-74
2023/12/03 07:11:36;;;;;;;;;53.25;38.75;;;;;;;;4963931;28;45346;-74
2023/12/03 07:14:02;;;;;;;;;49.33;33.67;;;;;;;;4960839;28;45309;-74
2023/12/03 07:16:27;;;;;;;;;39.00;34.75;;;;;;;;4961839;28;45568;-74
2023/12/03 07:18:52;;;;;;;;;41.67;36.67;;;;;;;;4959993;28;45377;-74
2023/12/03 07:21:17;;;;;;;;;56.00;40.00;;;;;;;;4944354;28;45353;-74
2023/12/03 07:23:42;;;;;;;;;39.33;31.00;;;;;;;;4940373;28;45718;-74
2023/12/03 07:26:09;;;;;;;;;53.00;39.33;;;;;;;;4942333;28;47145;-75
2023/12/03 07:28:34;;;;;;;;;27.25;17.50;;;;;;;;4957719;28;45287;-74
2023/12/03 07:31:00;;;;;;;;;39.00;33.50;;;;;;;;4944339;28;45441;-74
2023/12/03 07:33:25;;;;;;;;;40.00;34.50;;;;;;;;4955796;28;45275;-74
2023/12/03 07:35:50;;;;;;;;;44.67;35.67;;;;;;;;4953565;28;45811;-75
2023/12/03 07:38:15;;;;;;;;;44.25;36.75;;;;;;;;4959590;28;45342;-75
2023/12/03 07:40:40;;;;;;;;;49.00;36.75;;;;;;;;4958618;28;45254;-75
2023/12/03 07:43:06;;;;;;;;;45.33;36.33;;;;;;;;4958886;28;45240;-75
2023/12/03 07:45:31;;;;;;;;;52.33;38.33;;;;;;;;4944292;28;47462;-74
2023/12/03 07:47:56;;;;;;;;;39.75;35.50;;;;;;;;4959367;28;45405;-74
2023/12/03 07:50:21;;;;;;;;;36.00;30.50;;;;;;;;4958841;28;45886;-73
2023/12/03 07:52:46;;;;;;;;;36.25;29.25;;;;;;;;4959675;28;45407;-74
2023/12/03 07:55:12;;;;;;;;;46.25;32.50;;;;;;;;4956172;28;45616;-73
2023/12/03 07:57:37;;;;;;;;;44.50;32.50;;;;;;;;4954736;28;44806;-75
2023/12/03 08:00:04;;;;;;;;;36.00;34.00;;;;;;;;4943541;28;45459;-74
2023/12/03 08:02:30;;;;;;;;;34.33;29.33;;;;;;;;4958910;28;45451;-74
2023/12/03 08:04:55;;;;;;;;;38.50;32.50;;;;;;;;4960820;28;45512;-77
2023/12/03 08:07:20;;;;;;;;;44.00;30.50;;;;;;;;4966845;28;45307;-76
2023/12/03 08:09:45;;;;;;;;;48.67;33.33;;;;;;;;4956154;28;45334;-76
2023/12/03 08:12:10;;;;;;;;;41.75;33.25;;;;;;;;4959576;28;45408;-76
2023/12/03 08:14:35;;;;;;;;;40.00;25.33;;;;;;;;4955648;28;45370;-77
2023/12/03 08:17:01;;;;;;;;;40.33;33.67;;;;;;;;4961062;28;46316;-77
2023/12/03 08:19:26;;;;;;;;;43.67;29.67;;;;;;;;4958785;28;46005;-76
2023/12/03 08:21:51;;;;;;;;;41.00;35.33;;;;;;;;4967608;28;45345;-77
2023/12/03 08:24:16;;;;;;;;;49.33;35.00;;;;;;;;4955889;28;45556;-77
2023/12/03 08:26:42;;;;;;;;;42.00;38.50;;;;;;;;4967051;28;45203;-76
2023/12/03 08:29:08;;;;;;;;;38.00;33.50;;;;;;;;4954104;28;45452;-77
2023/12/03 08:31:33;;;;;;;;;38.33;31.00;;;;;;;;4959966;28;45227;-74
2023/12/03 08:33:59;;;;;;;;;33.00;30.67;;;;;;;;4953629;28;45624;-76
2023/12/03 08:36:24;;;;;;;;;39.00;32.00;;;;;;;;4972948;28;45336;-75
2023/12/03 08:38:50;;;;;;;;;32.50;25.25;;;;;;;;4956029;28;45388;-74
2023/12/03 08:41:15;;;;;;;;;39.25;34.00;;;;;;;;4964401;28;45448;-76
2023/12/03 08:43:40;;;;;;;;;44.75;35.50;;;;;;;;4954183;28;45285;-75
2023/12/03 08:46:07;;;;;;;;;30.25;27.25;;;;;;;;4960324;28;45227;-77
2023/12/03 08:48:32;;;;;;;;;37.33;34.33;;;;;;;;4956779;28;45570;-77
2023/12/03 08:50:57;;;;;;;;;35.25;28.50;;;;;;;;4959866;28;45256;-76
2023/12/03 08:53:22;;;;;;;;;39.00;33.00;;;;;;;;4954221;28;46482;-77
2023/12/03 08:55:47;;;;;;;;;49.25;36.75;;;;;;;;4964580;28;45437;-75
2023/12/03 08:58:13;;;;;;;;;40.00;32.00;;;;;;;;4961118;28;45529;-74
2023/12/03 09:00:38;;;;;;;;;46.50;32.75;;;;;;;;4960367;28;45579;-75
2023/12/03 09:03:04;;;;;;;;;34.00;29.25;;;;;;;;4956315;28;45392;-76
2023/12/03 09:05:30;;;;;;;;;44.00;36.00;;;;;;;;4959222;28;45505;-75
2023/12/03 09:07:55;;;;;;;;;44.25;30.75;;;;;;;;4958782;28;45597;-75
2023/12/03 09:10:21;;;;;;;;;36.25;27.50;;;;;;;;4959234;28;45314;-75
2023/12/03 09:12:46;;;;;;;;;45.50;37.50;;;;;;;;4941034;28;47080;-75
2023/12/03 09:15:11;;;;;;;;;39.00;34.00;;;;;;;;4958648;28;45414;-75
2023/12/03 09:17:36;;;;;;;;;35.50;32.75;;;;;;;;4957600;28;45417;-75
2023/12/03 09:20:02;;;;;;;;;43.25;33.25;;;;;;;;4958441;28;45216;-75
2023/12/03 09:22:27;;;;;;;;;36.25;35.00;;;;;;;;4958897;28;45497;-75
2023/12/03 09:24:52;;;;;;;;;39.25;29.75;;;;;;;;4942045;28;44740;-76
2023/12/03 09:27:17;;;;;;;;;45.50;36.25;;;;;;;;4959279;28;45596;-76
2023/12/03 09:29:42;;;;;;;;;41.67;36.67;;;;;;;;4954413;28;45482;-76
2023/12/03 09:32:08;;;;;;;;;36.00;30.00;;;;;;;;4959878;28;45481;-77
2023/12/03 09:34:33;;;;;;;;;39.75;27.50;;;;;;;;4954595;28;45506;-77
2023/12/03 09:36:58;;;;;;;;;48.00;33.50;;;;;;;;4958804;28;45452;-76
2023/12/03 09:39:23;;;;;;;;;30.50;23.25;;;;;;;;4952227;28;45516;-77
2023/12/03 09:41:49;;;;;;;;;49.50;35.75;;;;;;;;4959522;28;46221;-77
2023/12/03 09:44:20;;;;;;;;;38.25;25.75;;;;;;;;4938689;28;45371;-77
2023/12/03 09:46:47;;;;;;;;;37.50;32.75;;;;;;;;4943082;28;44829;-77
2023/12/03 09:49:14;;;;;;;;;49.00;34.25;;;;;;;;4955874;28;45314;-77
2023/12/03 09:51:40;;;;;;;;;36.75;29.50;;;;;;;;4954999;28;46332;-76
2023/12/03 09:54:06;;;;;;;;;40.00;34.75;;;;;;;;4957778;28;45178;-77
2023/12/03 09:56:32;;;;;;;;;25.25;24.00;;;;;;;;4956117;28;45510;-77
2023/12/03 09:58:57;;;;;;;;;47.50;37.75;;;;;;;;4953021;28;45336;-77
2023/12/03 10:01:23;;;;;;;;;44.25;35.25;;;;;;;;4960272;28;45961;-77
2023/12/03 10:03:49;;;;;;;;;39.25;35.00;;;;;;;;4942000;28;45273;-77
2023/12/03 10:06:19;;;;;;;;;41.00;33.75;;;;;;;;4965880;28;45380;-77
2023/12/03 10:08:45;;;;;;;;;35.50;26.25;;;;;;;;4939500;28;46346;-78
2023/12/03 10:11:13;;;;;;;;;37.50;29.00;;;;;;;;4960503;28;47183;-77
2023/12/03 10:13:39;;;;;;;;;44.25;35.00;;;;;;;;4956741;28;45357;-77
2023/12/03 10:16:07;;;;;;;;;50.75;35.50;;;;;;;;4958780;28;45353;-77
2023/12/03 10:18:32;;;;;;;;;40.75;35.00;;;;;;;;4957981;28;45239;-77
2023/12/03 10:21:04;;;;;;;;;35.00;30.50;;;;;;;;4959341;28;45589;-77
2023/12/03 10:23:29;;;;;;;;;44.75;35.00;;;;;;;;4956821;28;45354;-77
2023/12/03 10:25:54;;;;;;;;;33.75;26.00;;;;;;;;4958713;28;45360;-77
2023/12/03 10:28:20;;;;;;;;;35.75;33.25;;;;;;;;4958086;28;45259;-77
2023/12/03 10:30:45;;;;;;;;;32.50;28.25;;;;;;;;4956612;28;46361;-77
2023/12/03 10:33:11;;;;;;;;;61.25;40.50;;;;;;;;4954800;28;45270;-77
2023/12/03 10:35:37;;;;;;;;;63.00;49.67;;;;;;;;4958043;28;45293;-76
2023/12/03 10:38:07;;;;;;;;;59.33;44.33;;;;;;;;4955841;28;45524;-77
2023/12/03 10:40:36;;;;;;;;;50.25;39.50;;;;;;;;4955597;28;46591;-76
2023/12/03 10:43:02;;;;;;;;;50.50;37.00;;;;;;;;4956911;28;45334;-77
2023/12/03 10:45:28;;;;;;;;;37.25;26.50;;;;;;;;4958960;28;45228;-77
2023/12/03 10:47:58;;;;;;;;;76.33;58.33;;;;;;;;4958272;28;45407;-76
2023/12/03 10:50:25;;;;;;;;;38.00;31.75;;;;;;;;4961519;28;45334;-77
2023/12/03 10:52:51;;;;;;;;;80.67;58.67;;;;;;;;4960266;28;45254;-77
2023/12/03 10:55:17;;;;;;;;;72.33;51.33;;;;;;;;4963613;28;44759;-76
2023/12/03 10:57:53;;;;;;;;;95.33;71.33;;;;;;;;4960610;28;45373;-76
2023/12/03 11:00:19;;;;;;;;;35.75;34.50;;;;;;;;4958482;28;45205;-77
2023/12/03 11:02:46;;;;;;;;;49.25;32.25;;;;;;;;4941469;28;45506;-77
2023/12/03 11:05:43;;;;;;;;;47.50;33.50;;;;;;;;4943983;28;45259;-77
2023/12/03 11:08:10;;;;;;;;;33.75;28.75;;;;;;;;4930546;28;45445;-76
2023/12/03 11:10:37;;;;;;;;;105.00;82.33;;;;;;;;4961744;28;45501;-77
2023/12/03 11:13:03;;;;;;;;;48.25;38.50;;;;;;;;4959158;28;45448;-77
2023/12/03 11:15:28;;;;;;;;;39.25;33.00;;;;;;;;4944211;28;45223;-76
2023/12/03 11:17:53;;;;;;;;;36.75;29.75;;;;;;;;4960065;28;45247;-76
2023/12/03 11:20:22;;;;;;;;;39.50;35.75;;;;;;;;4959702;28;45504;-77
2023/12/03 11:23:08;;;;;;;;;47.25;39.25;;;;;;;;4942085;28;45497;-76
2023/12/03 11:25:34;;;;;;;;;72.00;54.00;;;;;;;;4964203;28;45270;-76
2023/12/03 11:27:59;;;;;;;;;33.50;27.50;;;;;;;;4960496;28;45506;-76
2023/12/03 11:30:38;;;;;;;;;59.00;49.25;;;;;;;;4956728;28;45546;-76
2023/12/03 11:33:21;;;;;;;;;41.75;31.50;;;;;;;;4944566;28;45601;-76
2023/12/03 11:35:47;;;;;;;;;31.75;28.50;;;;;;;;4945495;28;45473;-77
2023/12/03 11:38:18;;;;;;;;;35.75;28.50;;;;;;;;4941646;28;45704;-76
2023/12/03 11:40:43;;;;;;;;;31.00;29.50;;;;;;;;4957617;28;45699;-76
2023/12/03 11:43:23;;;;;;;;;34.25;24.50;;;;;;;;4957668;28;45512;-76
2023/12/03 11:45:50;;;;;;;;;29.50;23.50;;;;;;;;4958803;28;45366;-75
2023/12/03 11:48:15;;;;;;;;;35.50;28.75;;;;;;;;4956534;28;45362;-76
2023/12/03 11:50:42;;;;;;;;;29.25;22.75;;;;;;;;4959529;28;45748;-75
2023/12/03 11:53:08;;;;;;;;;29.00;23.00;;;;;;;;4957034;28;45349;-75
2023/12/03 11:55:34;;;;;;;;;16.00;16.00;;;;;;;;4949869;28;45347;-76
2023/12/03 11:58:00;;;;;;;;;28.50;23.50;;;;;;;;4939403;28;45913;-75
2023/12/03 12:00:26;;;;;;;;;26.50;24.00;;;;;;;;4949264;28;46523;-75
2023/12/03 12:02:51;;;;;;;;;24.00;22.00;;;;;;;;4959563;28;45318;-76
2023/12/03 12:05:17;;;;;;;;;35.00;27.50;;;;;;;;4961797;28;44711;-76
2023/12/03 12:07:42;;;;;;;;;20.75;19.00;;;;;;;;4965996;28;45210;-76
2023/12/03 12:10:07;;;;;;;;;30.00;23.75;;;;;;;;4960201;28;46488;-75
2023/12/03 12:12:32;;;;;;;;;34.50;27.25;;;;;;;;4960895;28;45312;-76
2023/12/03 12:14:59;;;;;;;;;24.50;21.75;;;;;;;;4961284;28;45296;-76
2023/12/03 12:17:25;;;;;;;;;21.00;18.50;;;;;;;;4961926;28;45177;-76
2023/12/03 12:19:51;;;;;;;;;18.75;17.00;;;;;;;;4959800;28;45616;-76
2023/12/03 12:22:16;;;;;;;;;23.50;18.50;;;;;;;;4961076;28;45227;-76
2023/12/03 12:24:44;;;;;;;;;22.75;20.00;;;;;;;;4948464;28;45484;-76
2023/12/03 12:27:09;;;;;;;;;25.25;20.75;;;;;;;;4960634;28;45337;-75
2023/12/03 12:29:34;;;;;;;;;21.00;16.75;;;;;;;;4957181;28;45566;-75
2023/12/03 12:32:00;;;;;;;;;20.75;16.75;;;;;;;;4943361;28;45276;-76
2023/12/03 12:34:25;;;;;;;;;19.75;17.00;;;;;;;;4954940;28;45640;-75
2023/12/03 12:37:01;;;;;;;;;17.00;17.00;;;;;;;;4960674;28;45325;-76
2023/12/03 12:39:26;;;;;;;;;25.50;20.75;;;;;;;;4955189;28;46563;-76
2023/12/03 12:41:52;;;;;;;;;25.00;20.00;;;;;;;;4960591;28;45263;-74
2023/12/03 12:44:18;;;;;;;;;22.75;18.00;;;;;;;;4958483;28;45290;-76
2023/12/03 12:46:51;;;;;;;;;16.50;16.00;;;;;;;;4963147;28;45217;-75
2023/12/03 12:49:17;;;;;;;;;22.25;17.75;;;;;;;;4959715;28;46814;-77
2023/12/03 12:51:42;;;;;;;;;14.25;14.25;;;;;;;;4962332;28;45302;-76
2023/12/03 12:54:08;;;;;;;;;17.00;11.00;;;;;;;;4958011;28;45419;-78
2023/12/03 12:56:33;;;;;;;;;19.75;16.25;;;;;;;;4958406;28;45325;-76
2023/12/03 12:58:58;;;;;;;;;18.00;15.25;;;;;;;;4963882;28;45846;-76
2023/12/03 13:01:23;;;;;;;;;19.50;18.00;;;;;;;;4965939;28;45253;-77
2023/12/03 13:03:49;;;;;;;;;14.25;14.25;;;;;;;;4958334;28;45484;-77
2023/12/03 13:06:14;;;;;;;;;18.00;17.00;;;;;;;;4967581;28;45613;-77
2023/12/03 13:08:40;;;;;;;;;49.50;38.25;;;;;;;;4959818;28;45373;-77
2023/12/03 13:11:05;;;;;;;;;26.00;18.75;;;;;;;;4968665;28;45452;-77
2023/12/03 13:13:30;;;;;;;;;17.00;17.00;;;;;;;;4942665;28;45450;-77
2023/12/03 13:15:56;;;;;;;;;24.75;20.00;;;;;;;;4960982;28;45196;-76
2023/12/03 13:18:21;;;;;;;;;40.00;31.75;;;;;;;;4960830;28;45516;-76
2023/12/03 13:20:46;;;;;;;;;25.25;22.75;;;;;;;;4953304;28;45331;-76
2023/12/03 13:23:11;;;;;;;;;18.75;16.50;;;;;;;;4955887;28;45272;-75
2023/12/03 13:25:36;;;;;;;;;23.75;16.25;;;;;;;;4954175;28;45356;-74
2023/12/03 13:28:01;;;;;;;;;21.50;20.00;;;;;;;;4958190;28;46353;-75
2023/12/03 13:30:27;;;;;;;;;33.75;29.00;;;;;;;;4955332;28;45199;-76
2023/12/03 13:32:52;;;;;;;;;19.00;18.00;;;;;;;;4945652;28;45192;-77
2023/12/03 13:35:17;;;;;;;;;52.25;39.50;;;;;;;;4953382;28;45679;-75
2023/12/03 13:37:43;;;;;;;;;31.75;26.50;;;;;;;;4960914;28;45295;-75
2023/12/03 13:40:09;;;;;;;;;33.50;30.00;;;;;;;;4955459;28;45337;-75
2023/12/03 13:42:34;;;;;;;;;13.00;13.00;;;;;;;;4957837;28;45262;-76
2023/12/03 13:45:02;;;;;;;;;16.25;14.50;;;;;;;;4958767;28;45149;-75
2023/12/03 13:47:28;;;;;;;;;20.50;16.50;;;;;;;;4961225;28;46228;-76
2023/12/03 13:49:53;;;;;;;;;23.50;20.75;;;;;;;;4962131;28;45392;-75
2023/12/03 13:52:18;;;;;;;;;34.00;29.50;;;;;;;;4964509;28;45444;-75
2023/12/03 13:54:43;;;;;;;;;34.00;26.75;;;;;;;;4961742;28;45231;-75
2023/12/03 13:57:08;;;;;;;;;20.25;18.50;;;;;;;;4966781;28;45393;-75
2023/12/03 13:59:34;;;;;;;;;29.50;24.00;;;;;;;;4957159;28;45283;-75
2023/12/03 14:01:59;;;;;;;;;25.75;20.25;;;;;;;;4959121;28;45331;-75
2023/12/03 14:04:24;;;;;;;;;16.75;16.00;;;;;;;;4958958;28;45145;-75
2023/12/03 14:06:49;;;;;;;;;21.50;18.00;;;;;;;;4955484;28;47991;-75
2023/12/03 14:09:15;;;;;;;;;32.00;22.75;;;;;;;;4962400;28;45396;-75